Aérodrome :
LOGIN :

S'inscrire | Disclaimer

   EN    FR    IT 

 










Légende :    VFR   VFR Marginal   IFR   IFR Intensif   IFR Très Intensif
Visi : 
Plafond : 
>= 8 km
>= 3000ft
5 à 8 km
1000 à 3000 ft
1500m à 5 km
500 à 1000 ft
800 à 1500m
200 à 500 ft
< 800m
< 200 ft
Symboles :   Orages  Brouillard  Fortes neiges  Fortes précipitations  Vent > 20 kt
SIGMETs :   Divers  Orages  Givrage  Turbulence  Onde Orograph.  Cendres Volcan.






- Altitude de l'aérodrome : 33 ft
- Code IATA : MHZ


EGUN - RAF Mildenhall

DERNIER METAR :
  • 171155Z 24022G33KT 9999 SCT030 10/02 A2967 RMK SLP051 WND DATA ESTMD ALTSG ESTMD RVRNO .

METARs EXPIRÉS :
  • 171055Z 24023G34KT 9999 FEW032 09/01 A2967 RMK SLP051 WND DATA ESTMD ALTSG ESTMD RVRNO .
  • 170956Z 23023G31KT 9999 CLR 08/ A2965 RMK SLP044 WND DATA ESTMD ALTSG ESTMD $

TAF TAF EGUN
Valide du 17 à 12h jusqu'au 18 à 18h UTC


171201Z 1712/1818 24025G35KT 9999 SCT030 520004 QNH2967INS
BECMG 1716/1717 25015G25KT 9000 -SHRA BKN020 QNH2977INS
BECMG 1720/1721 25015G25KT 9999 NSW SCT030 QNH2989INS
BECMG 1811/1812 24015G25KT 9999 SCT030 QNH2987INS
TEMPO 1812/1818 25025G35KT 520004 TX10/1712Z TN04/1804Z



MET'MAP, la Météo Aéronautique d'un coup d'oeil ! - Copyright ORBIFLY Décembre 2007 - Disclaimer

ORBIFLY MET'MAP TEAM :

Programmation & Développement : Alexandra Zaïnal
Sur une idée originale de : Baudouin d'Aumeries
Assistance à la programmation : Marc-Olivier Méhu
Soutien technique & logistique : Manuel Goepfert

Contact : metmap@orbifly.com




SOURCES & CREDITS :

   NOAA